Lower Valley, Nevada
Current Conditions -  °F | °C
As of 5:53 PM on Saturday 25 Oct 2014 (Local Time) from KLOL Reporting Station
Clear Clear  
Wind Chill: 59°   Ceiling: Unl
Heat Index: 59°   Visibility: 10mi
Dew Point: 27°   Wind: 21mph
Humidity: 29%   Direction: 250°WSW
Pressure: 29.94"   Gusts: 28mph
Location:  40.3545°N, 118.628°W
Report Text: KLOL 260053Z AUTO 25018G24KT 10SM CLR 15/M03 A2994 RMK AO2 PK WND 27042/0001 SLP137 T01501028
Loading
Personal Weather Stations






























Interactive Weather Map
Tropical Storm Tracking
New forecast layout! Learn more

10-Day Weather Forecast

Advertisements
Track Severe Weather on mobile